createdAt,value
2023-03-22T00:02:33.192Z,99.90
2023-03-22T00:05:05.807Z,99.90
2023-03-22T00:07:40.950Z,99.90
2023-03-22T00:10:14.351Z,99.90
2023-03-22T00:12:47.097Z,99.90
2023-03-22T00:15:19.888Z,99.90
2023-03-22T00:17:52.184Z,99.90
2023-03-22T00:20:24.432Z,99.90
2023-03-22T00:23:00.668Z,99.90
2023-03-22T00:25:32.679Z,99.90
2023-03-22T00:28:05.035Z,99.90
2023-03-22T00:30:37.427Z,99.90
2023-03-22T00:33:10.271Z,99.90
2023-03-22T00:35:48.960Z,99.90
2023-03-22T00:38:32.543Z,99.90
2023-03-22T00:41:23.135Z,99.90
2023-03-22T00:43:55.346Z,99.90
2023-03-22T00:46:27.480Z,99.90
2023-03-22T00:48:59.657Z,99.90
2023-03-22T00:51:31.698Z,99.90
2023-03-22T00:54:03.835Z,99.90
2023-03-22T00:56:37.636Z,99.90
2023-03-22T00:59:09.821Z,99.90
2023-03-22T01:01:43.686Z,99.90
2023-03-22T01:04:18.202Z,99.90
2023-03-22T01:06:59.441Z,99.90
2023-03-22T01:09:33.856Z,99.90
2023-03-22T01:12:06.189Z,99.90
2023-03-22T01:14:38.638Z,99.90
2023-03-22T01:17:11.037Z,99.90
2023-03-22T01:19:43.190Z,99.90
2023-03-22T01:22:15.271Z,99.90
2023-03-22T01:24:49.747Z,99.90
2023-03-22T01:27:21.920Z,99.90
2023-03-22T01:29:54.422Z,99.90
2023-03-22T01:32:27.080Z,99.90
2023-03-22T01:34:59.285Z,99.90
2023-03-22T01:37:32.648Z,99.90
2023-03-22T01:40:05.846Z,99.90
2023-03-22T01:42:38.964Z,99.90
2023-03-22T01:45:14.186Z,99.90
2023-03-22T01:48:34.259Z,99.90
2023-03-22T01:51:18.859Z,99.90
2023-03-22T01:53:57.521Z,99.90
2023-03-22T01:56:37.071Z,99.90
2023-03-22T01:59:13.654Z,99.90
2023-03-22T02:01:47.112Z,99.90
2023-03-22T02:04:23.702Z,99.90
2023-03-22T02:06:58.766Z,99.90
2023-03-22T02:09:42.300Z,99.90
2023-03-22T02:12:23.406Z,99.90
2023-03-22T02:15:24.906Z,99.90
2023-03-22T02:18:51.965Z,99.90
2023-03-22T02:22:11.925Z,99.90
2023-03-22T02:25:34.601Z,99.90
2023-03-22T02:28:42.787Z,99.90
2023-03-22T02:31:44.423Z,99.90
2023-03-22T02:35:03.696Z,99.90
2023-03-22T02:38:27.388Z,99.90
2023-03-22T02:41:37.057Z,99.90
2023-03-22T02:44:46.875Z,99.90
2023-03-22T02:47:43.557Z,99.90
2023-03-22T02:50:38.563Z,99.90
2023-03-22T02:53:27.692Z,99.90
2023-03-22T02:56:34.505Z,99.90
2023-03-22T02:59:17.425Z,99.90
2023-03-22T03:01:57.398Z,99.90
2023-03-22T03:04:39.875Z,99.90
2023-03-22T03:07:22.321Z,99.90
2023-03-22T03:10:26.134Z,99.90
2023-03-22T03:12:58.742Z,99.90
2023-03-22T03:15:31.762Z,99.90
2023-03-22T03:18:32.629Z,99.90
2023-03-22T03:21:30.219Z,99.90
2023-03-22T03:24:35.332Z,99.90
2023-03-22T03:27:25.699Z,99.90
2023-03-22T03:30:20.328Z,99.90
2023-03-22T03:33:09.498Z,99.90
2023-03-22T03:36:10.585Z,99.90
2023-03-22T03:38:49.678Z,99.90
2023-03-22T03:41:30.354Z,99.90
2023-03-22T03:44:03.726Z,99.90
2023-03-22T03:46:36.385Z,99.90
2023-03-22T03:49:10.346Z,99.90
2023-03-22T03:51:55.379Z,99.90
2023-03-22T03:54:27.680Z,99.90
2023-03-22T03:57:02.830Z,99.90
2023-03-22T03:59:36.532Z,99.90
2023-03-22T04:02:18.280Z,99.90
2023-03-22T04:04:50.647Z,99.90
2023-03-22T04:07:22.784Z,99.90
2023-03-22T04:09:55.049Z,99.90
2023-03-22T04:12:27.178Z,99.90
2023-03-22T04:14:59.361Z,99.90
2023-03-22T04:17:32.035Z,99.90
2023-03-22T04:20:06.041Z,99.90
2023-03-22T04:22:41.395Z,99.90
2023-03-22T04:25:18.162Z,99.90
2023-03-22T04:27:51.632Z,99.90
2023-03-22T04:30:27.435Z,99.90
2023-03-22T04:33:07.194Z,99.90
2023-03-22T04:35:39.359Z,99.90
2023-03-22T04:38:12.046Z,99.90
2023-03-22T04:40:46.716Z,99.90
2023-03-22T04:43:19.056Z,99.90
2023-03-22T04:45:51.209Z,99.90
2023-03-22T04:48:28.174Z,99.90
2023-03-22T04:51:04.068Z,99.90
2023-03-22T04:53:38.910Z,99.90
2023-03-22T04:56:13.637Z,99.90
2023-03-22T04:58:46.886Z,99.90
2023-03-22T05:01:19.258Z,99.90
2023-03-22T05:03:51.456Z,99.90
2023-03-22T05:06:23.613Z,99.90
2023-03-22T05:08:56.574Z,99.90
2023-03-22T05:11:29.390Z,99.90
2023-03-22T05:14:01.422Z,99.90
2023-03-22T05:16:34.677Z,99.90
2023-03-22T05:19:14.191Z,99.90
2023-03-22T05:21:46.611Z,99.90
2023-03-22T05:24:18.701Z,99.90
2023-03-22T05:26:53.887Z,99.90
2023-03-22T05:29:27.109Z,99.90
2023-03-22T05:31:59.553Z,99.90
2023-03-22T05:34:35.879Z,99.90
2023-03-22T05:37:08.490Z,99.90
2023-03-22T05:40:37.463Z,99.90
2023-03-22T05:43:09.876Z,99.90
2023-03-22T05:45:42.146Z,99.90
2023-03-22T05:48:14.375Z,99.90
2023-03-22T05:50:47.635Z,99.90
2023-03-22T05:53:19.920Z,99.90
2023-03-22T05:55:53.176Z,99.90
2023-03-22T05:58:30.798Z,99.90
2023-03-22T06:01:09.099Z,99.90
2023-03-22T06:03:43.914Z,99.90
2023-03-22T06:06:16.203Z,99.90
2023-03-22T06:08:48.208Z,99.90
2023-03-22T06:11:20.376Z,99.90
2023-03-22T06:13:53.726Z,99.90
2023-03-22T06:16:26.101Z,99.90
2023-03-22T06:18:58.553Z,99.90
2023-03-22T06:21:31.153Z,99.90
2023-03-22T06:24:03.534Z,99.90
2023-03-22T06:26:36.071Z,99.90
2023-03-22T06:29:08.573Z,99.90
2023-03-22T06:31:41.001Z,99.90
2023-03-22T06:34:13.162Z,99.90
2023-03-22T06:36:45.344Z,99.90
2023-03-22T06:39:17.394Z,99.90
2023-03-22T06:41:51.741Z,99.90
2023-03-22T06:44:24.169Z,99.90
2023-03-22T06:46:58.146Z,99.90
2023-03-22T06:49:31.599Z,99.90
2023-03-22T06:52:04.257Z,99.90
2023-03-22T06:54:36.687Z,99.90
2023-03-22T06:57:08.854Z,99.90
2023-03-22T06:59:41.457Z,99.90
2023-03-22T07:02:14.361Z,99.90
2023-03-22T07:04:46.862Z,99.90
2023-03-22T07:07:19.371Z,99.90
2023-03-22T07:09:52.925Z,99.90
2023-03-22T07:12:25.555Z,99.90
2023-03-22T07:14:57.977Z,99.90
2023-03-22T07:17:30.702Z,99.90
2023-03-22T07:20:04.415Z,99.90
2023-03-22T07:22:37.864Z,99.90
2023-03-22T07:25:10.446Z,99.90
2023-03-22T07:27:43.208Z,99.90
2023-03-22T07:30:15.827Z,99.90
2023-03-22T07:32:49.632Z,99.90
2023-03-22T07:35:24.073Z,99.90
2023-03-22T07:37:58.864Z,99.90
2023-03-22T07:40:32.082Z,99.90
2023-03-22T07:43:05.497Z,99.90
2023-03-22T07:49:43.244Z,99.90
2023-03-22T07:52:15.619Z,98.70
2023-03-22T07:54:48.599Z,98.50
2023-03-22T07:57:21.090Z,98.70
2023-03-22T07:59:53.383Z,97.60
2023-03-22T08:02:26.028Z,98.00
2023-03-22T08:04:58.606Z,97.60
2023-03-22T08:07:31.825Z,96.70
2023-03-22T08:10:05.132Z,97.40
2023-03-22T08:12:38.030Z,97.10
2023-03-22T08:15:11.090Z,97.20
2023-03-22T08:17:44.142Z,97.10
2023-03-22T08:20:18.555Z,96.90
2023-03-22T08:22:51.217Z,97.70
2023-03-22T08:25:24.822Z,97.30
2023-03-22T08:27:57.674Z,96.80
2023-03-22T08:30:30.190Z,97.10
2023-03-22T08:33:03.059Z,97.00
2023-03-22T08:35:36.327Z,97.10
2023-03-22T08:38:09.326Z,96.60
2023-03-22T08:40:42.645Z,97.00
2023-03-22T08:43:18.050Z,96.80
2023-03-22T08:45:50.432Z,96.60
2023-03-22T08:48:23.757Z,96.10
2023-03-22T08:51:51.432Z,96.40
2023-03-22T08:54:27.218Z,97.20
2023-03-22T08:57:05.029Z,96.80
2023-03-22T08:59:41.759Z,96.50
2023-03-22T09:02:14.378Z,97.20
2023-03-22T09:04:47.757Z,97.30
2023-03-22T09:07:24.789Z,98.30
2023-03-22T09:09:57.108Z,98.00
2023-03-22T09:12:30.136Z,98.80
2023-03-22T09:15:03.612Z,97.70
2023-03-22T09:17:38.007Z,98.50
2023-03-22T09:20:13.165Z,97.80
2023-03-22T09:22:46.494Z,97.20
2023-03-22T09:25:19.462Z,97.70
2023-03-22T09:27:52.985Z,99.20
2023-03-22T09:30:25.396Z,99.20
2023-03-22T09:32:58.684Z,99.30
2023-03-22T09:36:09.488Z,99.90
2023-03-22T09:38:43.811Z,99.20
2023-03-22T09:41:24.191Z,99.20
2023-03-22T09:44:56.860Z,99.90
2023-03-22T09:47:45.376Z,99.90
2023-03-22T09:50:26.583Z,99.70
2023-03-22T09:53:02.118Z,99.60
2023-03-22T09:55:41.875Z,99.40
2023-03-22T09:58:43.271Z,99.40
2023-03-22T10:01:40.990Z,99.40
2023-03-22T10:04:57.813Z,99.90
2023-03-22T10:07:52.956Z,99.50
2023-03-22T10:10:45.496Z,99.90
2023-03-22T10:13:49.493Z,99.80
2023-03-22T10:16:35.638Z,99.90
2023-03-22T10:19:32.778Z,99.90
2023-03-22T10:22:31.219Z,99.80
2023-03-22T10:25:09.930Z,99.90
2023-03-22T10:27:50.706Z,99.90
2023-03-22T10:30:26.477Z,99.90
2023-03-22T10:33:14.016Z,99.80
2023-03-22T10:35:54.199Z,99.90
2023-03-22T10:38:30.467Z,99.90
2023-03-22T10:41:07.119Z,99.90
2023-03-22T10:43:43.006Z,99.90
2023-03-22T10:46:23.180Z,99.90
2023-03-22T10:49:01.061Z,99.90
2023-03-22T10:51:48.331Z,99.90
2023-03-22T10:54:26.028Z,99.40
2023-03-22T10:56:58.936Z,98.70
2023-03-22T10:59:57.036Z,99.90
2023-03-22T11:02:33.205Z,98.80
2023-03-22T11:05:07.339Z,98.90
2023-03-22T11:07:53.023Z,98.40
2023-03-22T11:10:29.345Z,98.20
2023-03-22T11:13:10.167Z,97.90
2023-03-22T11:16:11.571Z,98.00
2023-03-22T11:18:48.453Z,97.60
2023-03-22T11:21:28.782Z,97.80
2023-03-22T11:24:07.093Z,98.80
2023-03-22T11:27:03.546Z,98.70
2023-03-22T11:30:40.359Z,98.00
2023-03-22T11:33:29.721Z,98.50
2023-03-22T11:36:24.873Z,99.00
2023-03-22T11:39:06.576Z,98.30
2023-03-22T11:41:40.850Z,97.50
2023-03-22T11:44:17.046Z,95.20
2023-03-22T11:47:02.920Z,93.90
2023-03-22T11:49:52.000Z,96.10
2023-03-22T11:52:28.165Z,95.30
2023-03-22T11:55:02.004Z,95.90
2023-03-22T11:57:36.894Z,97.30
2023-03-22T12:00:38.365Z,97.10
2023-03-22T12:03:23.116Z,97.50
2023-03-22T12:06:03.337Z,97.00
2023-03-22T12:08:55.527Z,96.40
2023-03-22T12:11:51.807Z,97.30
2023-03-22T12:14:49.468Z,97.10
2023-03-22T12:17:32.194Z,97.20
2023-03-22T12:20:21.408Z,97.00
2023-03-22T12:23:23.572Z,96.20
2023-03-22T12:26:06.500Z,95.90
2023-03-22T12:29:00.934Z,96.80
2023-03-22T12:31:46.017Z,96.80
2023-03-22T12:34:52.512Z,97.70
2023-03-22T12:37:32.054Z,97.70
2023-03-22T12:40:29.336Z,97.30
2023-03-22T12:43:16.421Z,95.40
2023-03-22T12:46:09.005Z,95.80
2023-03-22T12:49:12.689Z,96.00
2023-03-22T12:52:15.586Z,94.90
2023-03-22T12:55:05.607Z,93.70
2023-03-22T12:57:38.908Z,93.30
2023-03-22T13:00:17.538Z,93.10
2023-03-22T13:03:15.773Z,88.90
2023-03-22T13:06:05.801Z,87.50
2023-03-22T13:09:16.646Z,87.20
2023-03-22T13:12:16.954Z,82.70
2023-03-22T13:15:40.424Z,82.70
2023-03-22T13:18:36.460Z,84.40
2023-03-22T13:21:30.933Z,80.90
2023-03-22T13:24:10.582Z,82.00
2023-03-22T13:26:55.404Z,84.70
2023-03-22T13:29:32.857Z,85.00
2023-03-22T13:32:52.574Z,79.70
2023-03-22T13:35:42.283Z,81.30
2023-03-22T13:38:53.265Z,80.60
2023-03-22T13:41:34.613Z,77.70
2023-03-22T13:44:24.611Z,76.60
2023-03-22T13:47:02.297Z,76.10
2023-03-22T13:49:54.767Z,76.20
2023-03-22T13:52:39.015Z,79.30
2023-03-22T13:55:56.117Z,75.40
2023-03-22T13:58:37.111Z,75.10
2023-03-22T14:01:35.177Z,78.50
2023-03-22T14:04:17.049Z,74.30
2023-03-22T14:07:16.314Z,78.00
2023-03-22T14:10:27.197Z,75.20
2023-03-22T14:13:38.144Z,74.90
2023-03-22T14:16:36.149Z,70.70
2023-03-22T14:19:34.190Z,70.60
